sensor_id;sensor_type;location;lat;lon;timestamp;pressure;altitude;pressure_sealevel;temperature;humidity
11682;BME280;5897;42.640;23.310;2023-06-26T00:01:07;93751.84;;;20.15;100.00
11682;BME280;5897;42.640;23.310;2023-06-26T00:03:34;93753.81;;;20.09;100.00
11682;BME280;5897;42.640;23.310;2023-06-26T00:06:01;93751.59;;;20.13;100.00
11682;BME280;5897;42.640;23.310;2023-06-26T00:08:28;93750.09;;;20.12;100.00
11682;BME280;5897;42.640;23.310;2023-06-26T00:10:55;93755.28;;;20.10;100.00
11682;BME280;5897;42.640;23.310;2023-06-26T00:13:24;93747.72;;;19.94;100.00
11682;BME280;5897;42.640;23.310;2023-06-26T00:15:51;93746.44;;;19.89;100.00
11682;BME280;5897;42.640;23.310;2023-06-26T00:18:18;93748.22;;;19.98;100.00
11682;BME280;5897;42.640;23.310;2023-06-26T00:20:44;93746.72;;;19.97;100.00
11682;BME280;5897;42.640;23.310;2023-06-26T00:23:11;93755.91;;;19.88;100.00
11682;BME280;5897;42.640;23.310;2023-06-26T00:25:42;93749.47;;;19.97;100.00
11682;BME280;5897;42.640;23.310;2023-06-26T00:28:09;93752.69;;;19.90;100.00
11682;BME280;5897;42.640;23.310;2023-06-26T00:30:37;93749.41;;;19.86;100.00
11682;BME280;5897;42.640;23.310;2023-06-26T00:33:04;93751.09;;;19.78;100.00
11682;BME280;5897;42.640;23.310;2023-06-26T00:35:31;93748.31;;;19.72;100.00
11682;BME280;5897;42.640;23.310;2023-06-26T00:37:57;93745.56;;;19.67;100.00
11682;BME280;5897;42.640;23.310;2023-06-26T00:40:24;93740.06;;;19.67;100.00
11682;BME280;5897;42.640;23.310;2023-06-26T00:42:52;93738.59;;;19.71;100.00
11682;BME280;5897;42.640;23.310;2023-06-26T00:45:18;93746.59;;;19.75;100.00
11682;BME280;5897;42.640;23.310;2023-06-26T00:47:47;93743.97;;;19.55;100.00
11682;BME280;5897;42.640;23.310;2023-06-26T00:50:13;93749.22;;;19.58;100.00
11682;BME280;5897;42.640;23.310;2023-06-26T00:52:43;93732.09;;;19.63;100.00
11682;BME280;5897;42.640;23.310;2023-06-26T00:55:10;93738.75;;;19.57;100.00
11682;BME280;5897;42.640;23.310;2023-06-26T00:57:37;93731.28;;;19.57;100.00
11682;BME280;5897;42.640;23.310;2023-06-26T01:00:05;93726.28;;;19.56;100.00
11682;BME280;5897;42.640;23.310;2023-06-26T01:02:32;93728.78;;;19.54;100.00
11682;BME280;5897;42.640;23.310;2023-06-26T01:05:01;93725.50;;;19.50;100.00
11682;BME280;5897;42.640;23.310;2023-06-26T01:07:32;93728.03;;;19.53;100.00
11682;BME280;5897;42.640;23.310;2023-06-26T01:10:02;93719.81;;;19.53;100.00
11682;BME280;5897;42.640;23.310;2023-06-26T01:12:30;93715.81;;;19.54;100.00
11682;BME280;5897;42.640;23.310;2023-06-26T01:14:57;93719.09;;;19.58;100.00
11682;BME280;5897;42.640;23.310;2023-06-26T01:17:24;93712.59;;;19.56;100.00
11682;BME280;5897;42.640;23.310;2023-06-26T01:19:52;93716.50;;;19.44;100.00
11682;BME280;5897;42.640;23.310;2023-06-26T01:22:26;93703.81;;;19.46;100.00
11682;BME280;5897;42.640;23.310;2023-06-26T01:25:03;93700.59;;;19.48;100.00
11682;BME280;5897;42.640;23.310;2023-06-26T01:27:37;93700.06;;;19.44;100.00
11682;BME280;5897;42.640;23.310;2023-06-26T01:30:06;93698.59;;;19.48;100.00
11682;BME280;5897;42.640;23.310;2023-06-26T01:32:34;93702.53;;;19.42;100.00
11682;BME280;5897;42.640;23.310;2023-06-26T01:35:01;93699.84;;;19.47;100.00
11682;BME280;5897;42.640;23.310;2023-06-26T01:37:28;93695.03;;;19.37;100.00
11682;BME280;5897;42.640;23.310;2023-06-26T01:39:55;93689.09;;;19.44;100.00
11682;BME280;5897;42.640;23.310;2023-06-26T01:42:22;93689.75;;;19.33;100.00
11682;BME280;5897;42.640;23.310;2023-06-26T01:44:50;93690.28;;;19.32;100.00
11682;BME280;5897;42.640;23.310;2023-06-26T01:47:22;93689.81;;;19.39;100.00
11682;BME280;5897;42.640;23.310;2023-06-26T01:49:56;93694.53;;;19.38;100.00
11682;BME280;5897;42.640;23.310;2023-06-26T01:52:27;93691.84;;;19.44;100.00
11682;BME280;5897;42.640;23.310;2023-06-26T01:54:58;93695.53;;;19.35;100.00
11682;BME280;5897;42.640;23.310;2023-06-26T01:57:29;93689.25;;;19.29;100.00
11682;BME280;5897;42.640;23.310;2023-06-26T01:59:58;93691.31;;;19.40;100.00
11682;BME280;5897;42.640;23.310;2023-06-26T02:02:25;93685.22;;;19.25;100.00
11682;BME280;5897;42.640;23.310;2023-06-26T02:04:52;93696.69;;;19.23;100.00
11682;BME280;5897;42.640;23.310;2023-06-26T02:07:19;93691.22;;;19.29;100.00
11682;BME280;5897;42.640;23.310;2023-06-26T02:09:46;93691.06;;;19.38;100.00
11682;BME280;5897;42.640;23.310;2023-06-26T02:12:12;93685.81;;;19.34;100.00
11682;BME280;5897;42.640;23.310;2023-06-26T02:14:39;93682.56;;;19.36;100.00
11682;BME280;5897;42.640;23.310;2023-06-26T02:17:07;93682.13;;;19.43;100.00
11682;BME280;5897;42.640;23.310;2023-06-26T02:19:34;93687.06;;;19.39;100.00
11682;BME280;5897;42.640;23.310;2023-06-26T02:22:01;93687.59;;;19.43;100.00
11682;BME280;5897;42.640;23.310;2023-06-26T02:24:28;93687.03;;;19.33;100.00
11682;BME280;5897;42.640;23.310;2023-06-26T02:26:55;93682.06;;;19.37;100.00
11682;BME280;5897;42.640;23.310;2023-06-26T02:29:22;93682.56;;;19.36;100.00
11682;BME280;5897;42.640;23.310;2023-06-26T02:31:49;93684.28;;;19.33;100.00
11682;BME280;5897;42.640;23.310;2023-06-26T02:34:17;93684.00;;;19.26;100.00
11682;BME280;5897;42.640;23.310;2023-06-26T02:36:44;93688.25;;;19.27;100.00
11682;BME280;5897;42.640;23.310;2023-06-26T02:39:11;93692.72;;;19.30;100.00
11682;BME280;5897;42.640;23.310;2023-06-26T02:41:37;93695.22;;;19.33;100.00
11682;BME280;5897;42.640;23.310;2023-06-26T02:44:04;93693.44;;;19.25;100.00
11682;BME280;5897;42.640;23.310;2023-06-26T02:46:31;93694.19;;;19.25;100.00
11682;BME280;5897;42.640;23.310;2023-06-26T02:48:59;93698.09;;;19.19;100.00
11682;BME280;5897;42.640;23.310;2023-06-26T02:51:27;93692.91;;;19.21;100.00
11682;BME280;5897;42.640;23.310;2023-06-26T02:53:54;93698.41;;;19.21;100.00
11682;BME280;5897;42.640;23.310;2023-06-26T02:56:20;93695.66;;;19.21;100.00
11682;BME280;5897;42.640;23.310;2023-06-26T02:58:47;93698.72;;;19.28;100.00
11682;BME280;5897;42.640;23.310;2023-06-26T03:01:14;93696.16;;;19.25;100.00
11682;BME280;5897;42.640;23.310;2023-06-26T03:03:41;93698.41;;;19.21;100.00
11682;BME280;5897;42.640;23.310;2023-06-26T03:06:07;93700.44;;;19.26;100.00
11682;BME280;5897;42.640;23.310;2023-06-26T03:08:37;93701.16;;;19.26;100.00
11682;BME280;5897;42.640;23.310;2023-06-26T03:11:04;93703.44;;;19.28;100.00
11682;BME280;5897;42.640;23.310;2023-06-26T03:13:32;93706.16;;;19.28;100.00
11682;BME280;5897;42.640;23.310;2023-06-26T03:15:58;93705.69;;;19.29;100.00
11682;BME280;5897;42.640;23.310;2023-06-26T03:18:25;93709.94;;;19.36;100.00
11682;BME280;5897;42.640;23.310;2023-06-26T03:20:52;93704.53;;;19.41;100.00
11682;BME280;5897;42.640;23.310;2023-06-26T03:23:20;93709.25;;;19.41;100.00
11682;BME280;5897;42.640;23.310;2023-06-26T03:25:48;93702.72;;;19.33;100.00
11682;BME280;5897;42.640;23.310;2023-06-26T03:28:16;93711.25;;;19.40;100.00
11682;BME280;5897;42.640;23.310;2023-06-26T03:30:43;93700.47;;;19.31;100.00
11682;BME280;5897;42.640;23.310;2023-06-26T03:33:10;93696.00;;;19.34;100.00
11682;BME280;5897;42.640;23.310;2023-06-26T03:35:36;93707.50;;;19.38;100.00
11682;BME280;5897;42.640;23.310;2023-06-26T03:38:04;93713.75;;;19.44;100.00
11682;BME280;5897;42.640;23.310;2023-06-26T03:40:31;93712.75;;;19.41;100.00
11682;BME280;5897;42.640;23.310;2023-06-26T03:42:59;93706.72;;;19.37;100.00
11682;BME280;5897;42.640;23.310;2023-06-26T03:45:26;93706.97;;;19.34;100.00
11682;BME280;5897;42.640;23.310;2023-06-26T03:47:52;93707.53;;;19.18;100.00
11682;BME280;5897;42.640;23.310;2023-06-26T03:50:19;93699.63;;;19.20;100.00
11682;BME280;5897;42.640;23.310;2023-06-26T03:52:46;93706.88;;;19.23;100.00
11682;BME280;5897;42.640;23.310;2023-06-26T03:55:13;93708.91;;;19.28;100.00
11682;BME280;5897;42.640;23.310;2023-06-26T03:57:39;93711.09;;;19.24;100.00
11682;BME280;5897;42.640;23.310;2023-06-26T04:00:09;93702.66;;;19.27;100.00
11682;BME280;5897;42.640;23.310;2023-06-26T04:02:38;93707.41;;;19.27;100.00
11682;BME280;5897;42.640;23.310;2023-06-26T04:05:05;93710.94;;;19.33;100.00
11682;BME280;5897;42.640;23.310;2023-06-26T04:07:32;93697.94;;;19.28;100.00
11682;BME280;5897;42.640;23.310;2023-06-26T04:10:00;93699.97;;;19.33;100.00
11682;BME280;5897;42.640;23.310;2023-06-26T04:12:27;93699.00;;;19.36;100.00
11682;BME280;5897;42.640;23.310;2023-06-26T04:14:53;93709.22;;;19.35;100.00
11682;BME280;5897;42.640;23.310;2023-06-26T04:17:21;93707.50;;;19.43;100.00
11682;BME280;5897;42.640;23.310;2023-06-26T04:19:48;93705.53;;;19.44;100.00
11682;BME280;5897;42.640;23.310;2023-06-26T04:22:15;93708.81;;;19.48;100.00
11682;BME280;5897;42.640;23.310;2023-06-26T04:24:42;93709.28;;;19.46;100.00
11682;BME280;5897;42.640;23.310;2023-06-26T04:27:09;93710.34;;;19.54;100.00
11682;BME280;5897;42.640;23.310;2023-06-26T04:29:36;93711.31;;;19.51;100.00
11682;BME280;5897;42.640;23.310;2023-06-26T04:32:03;93709.59;;;19.54;100.00
11682;BME280;5897;42.640;23.310;2023-06-26T04:34:31;93717.63;;;19.63;100.00
11682;BME280;5897;42.640;23.310;2023-06-26T04:37:00;93711.59;;;19.59;100.00
11682;BME280;5897;42.640;23.310;2023-06-26T04:39:29;93719.41;;;19.66;100.00
11682;BME280;5897;42.640;23.310;2023-06-26T04:41:56;93721.41;;;19.71;100.00
11682;BME280;5897;42.640;23.310;2023-06-26T04:44:24;93715.19;;;19.76;100.00
11682;BME280;5897;42.640;23.310;2023-06-26T04:46:50;93716.19;;;19.73;100.00
11682;BME280;5897;42.640;23.310;2023-06-26T04:49:18;93718.22;;;19.78;100.00
11682;BME280;5897;42.640;23.310;2023-06-26T04:51:46;93724.50;;;19.89;100.00
11682;BME280;5897;42.640;23.310;2023-06-26T04:54:14;93723.28;;;19.96;100.00
11682;BME280;5897;42.640;23.310;2023-06-26T04:56:40;93720.94;;;20.14;100.00
11682;BME280;5897;42.640;23.310;2023-06-26T04:59:09;93711.03;;;20.33;100.00
11682;BME280;5897;42.640;23.310;2023-06-26T05:01:38;93713.28;;;20.40;100.00
11682;BME280;5897;42.640;23.310;2023-06-26T05:04:05;93718.84;;;20.57;100.00
11682;BME280;5897;42.640;23.310;2023-06-26T05:06:32;93721.31;;;20.49;100.00
11682;BME280;5897;42.640;23.310;2023-06-26T05:09:00;93713.31;;;20.46;100.00
11682;BME280;5897;42.640;23.310;2023-06-26T05:11:27;93727.03;;;20.46;100.00
11682;BME280;5897;42.640;23.310;2023-06-26T05:13:54;93716.56;;;20.50;100.00
11682;BME280;5897;42.640;23.310;2023-06-26T05:16:20;93732.81;;;20.53;100.00
11682;BME280;5897;42.640;23.310;2023-06-26T05:18:47;93727.53;;;20.50;100.00
11682;BME280;5897;42.640;23.310;2023-06-26T05:21:15;93730.47;;;20.30;100.00
11682;BME280;5897;42.640;23.310;2023-06-26T05:23:42;93726.66;;;20.16;100.00
11682;BME280;5897;42.640;23.310;2023-06-26T05:26:12;93739.47;;;20.30;100.00
11682;BME280;5897;42.640;23.310;2023-06-26T05:28:40;93740.19;;;20.25;100.00
11682;BME280;5897;42.640;23.310;2023-06-26T05:31:07;93744.22;;;20.41;100.00
11682;BME280;5897;42.640;23.310;2023-06-26T05:33:35;93736.97;;;20.38;100.00
11682;BME280;5897;42.640;23.310;2023-06-26T05:36:04;93746.75;;;20.50;100.00
11682;BME280;5897;42.640;23.310;2023-06-26T05:38:31;93742.00;;;20.45;100.00
11682;BME280;5897;42.640;23.310;2023-06-26T05:40:59;93745.28;;;20.60;100.00
11682;BME280;5897;42.640;23.310;2023-06-26T05:43:27;93747.50;;;20.56;100.00
11682;BME280;5897;42.640;23.310;2023-06-26T05:45:54;93745.00;;;20.52;100.00
11682;BME280;5897;42.640;23.310;2023-06-26T05:48:20;93735.53;;;20.48;100.00
11682;BME280;5897;42.640;23.310;2023-06-26T05:50:47;93747.31;;;20.59;100.00
11682;BME280;5897;42.640;23.310;2023-06-26T05:53:15;93746.06;;;20.66;100.00
11682;BME280;5897;42.640;23.310;2023-06-26T05:55:42;93748.81;;;20.66;100.00
11682;BME280;5897;42.640;23.310;2023-06-26T05:58:10;93752.06;;;20.75;100.00
11682;BME280;5897;42.640;23.310;2023-06-26T06:00:39;93753.06;;;20.78;100.00
11682;BME280;5897;42.640;23.310;2023-06-26T06:03:06;93744.66;;;20.92;100.00
11682;BME280;5897;42.640;23.310;2023-06-26T06:05:32;93750.59;;;20.80;100.00
11682;BME280;5897;42.640;23.310;2023-06-26T06:07:59;93749.13;;;20.90;100.00
11682;BME280;5897;42.640;23.310;2023-06-26T06:10:26;93748.16;;;20.93;100.00
11682;BME280;5897;42.640;23.310;2023-06-26T06:12:52;93754.41;;;20.99;100.00
11682;BME280;5897;42.640;23.310;2023-06-26T06:15:20;93743.19;;;21.08;100.00
11682;BME280;5897;42.640;23.310;2023-06-26T06:17:48;93744.22;;;21.21;100.00
11682;BME280;5897;42.640;23.310;2023-06-26T06:20:14;93750.94;;;21.26;100.00
11682;BME280;5897;42.640;23.310;2023-06-26T06:22:42;93741.69;;;21.29;100.00
11682;BME280;5897;42.640;23.310;2023-06-26T06:25:09;93740.22;;;21.33;100.00
11682;BME280;5897;42.640;23.310;2023-06-26T06:27:35;93738.72;;;21.49;100.00
11682;BME280;5897;42.640;23.310;2023-06-26T06:30:03;93746.69;;;21.58;100.00
11682;BME280;5897;42.640;23.310;2023-06-26T06:32:29;93753.47;;;21.40;100.00
11682;BME280;5897;42.640;23.310;2023-06-26T06:34:57;93749.19;;;21.34;100.00
11682;BME280;5897;42.640;23.310;2023-06-26T06:37:24;93742.97;;;21.22;100.00
11682;BME280;5897;42.640;23.310;2023-06-26T06:39:51;93745.19;;;21.13;100.00
11682;BME280;5897;42.640;23.310;2023-06-26T06:42:18;93737.69;;;21.13;100.00
11682;BME280;5897;42.640;23.310;2023-06-26T06:44:45;93743.44;;;21.10;100.00
11682;BME280;5897;42.640;23.310;2023-06-26T06:47:12;93741.44;;;21.16;100.00
11682;BME280;5897;42.640;23.310;2023-06-26T06:49:38;93736.22;;;21.45;100.00
11682;BME280;5897;42.640;23.310;2023-06-26T06:52:07;93741.72;;;21.84;100.00
11682;BME280;5897;42.640;23.310;2023-06-26T06:54:51;93732.22;;;21.90;98.93
11682;BME280;5897;42.640;23.310;2023-06-26T06:57:18;93747.16;;;22.11;97.52
11682;BME280;5897;42.640;23.310;2023-06-26T06:59:45;93746.66;;;22.02;96.29
11682;BME280;5897;42.640;23.310;2023-06-26T07:02:12;93735.19;;;21.92;97.09
11682;BME280;5897;42.640;23.310;2023-06-26T07:04:39;93746.22;;;21.76;99.16
11682;BME280;5897;42.640;23.310;2023-06-26T07:07:07;93738.47;;;21.85;98.92
11682;BME280;5897;42.640;23.310;2023-06-26T07:09:35;93735.63;;;22.13;100.00
11682;BME280;5897;42.640;23.310;2023-06-26T07:12:02;93729.81;;;22.38;100.00
11682;BME280;5897;42.640;23.310;2023-06-26T07:14:29;93741.78;;;22.52;97.36
11682;BME280;5897;42.640;23.310;2023-06-26T07:16:55;93739.03;;;22.52;92.72
11682;BME280;5897;42.640;23.310;2023-06-26T07:19:22;93733.38;;;22.79;93.58
11682;BME280;5897;42.640;23.310;2023-06-26T07:21:49;93741.78;;;23.03;90.08
11682;BME280;5897;42.640;23.310;2023-06-26T07:24:17;93740.78;;;23.01;87.48
11682;BME280;5897;42.640;23.310;2023-06-26T07:26:44;93740.09;;;22.95;91.63
11682;BME280;5897;42.640;23.310;2023-06-26T07:29:10;93730.34;;;22.83;91.03
11682;BME280;5897;42.640;23.310;2023-06-26T07:31:37;93736.06;;;22.96;88.70
11682;BME280;5897;42.640;23.310;2023-06-26T07:34:04;93739.97;;;23.11;89.21
11682;BME280;5897;42.640;23.310;2023-06-26T07:36:31;93741.13;;;23.32;88.91
11682;BME280;5897;42.640;23.310;2023-06-26T07:38:57;93744.44;;;23.55;84.67
11682;BME280;5897;42.640;23.310;2023-06-26T07:41:25;93741.53;;;23.42;85.86
11682;BME280;5897;42.640;23.310;2023-06-26T07:43:54;93746.59;;;23.67;79.58
11682;BME280;5897;42.640;23.310;2023-06-26T07:46:21;93748.56;;;23.72;77.57
11682;BME280;5897;42.640;23.310;2023-06-26T07:48:48;93751.25;;;23.78;78.64
11682;BME280;5897;42.640;23.310;2023-06-26T07:51:14;93744.25;;;23.77;79.63
11682;BME280;5897;42.640;23.310;2023-06-26T07:53:41;93749.53;;;24.04;78.82
11682;BME280;5897;42.640;23.310;2023-06-26T07:56:08;93751.44;;;24.15;80.20
11682;BME280;5897;42.640;23.310;2023-06-26T07:58:36;93745.16;;;24.14;79.30
11682;BME280;5897;42.640;23.310;2023-06-26T08:01:03;93740.06;;;24.00;81.00
11682;BME280;5897;42.640;23.310;2023-06-26T08:03:29;93745.00;;;24.07;79.82
11682;BME280;5897;42.640;23.310;2023-06-26T08:05:56;93744.88;;;24.18;77.70
11682;BME280;5897;42.640;23.310;2023-06-26T08:08:23;93749.88;;;24.43;73.08
11682;BME280;5897;42.640;23.310;2023-06-26T08:10:50;93753.78;;;24.53;78.16
11682;BME280;5897;42.640;23.310;2023-06-26T08:13:16;93734.66;;;24.55;79.46
11682;BME280;5897;42.640;23.310;2023-06-26T08:15:44;93736.22;;;24.75;77.31
11682;BME280;5897;42.640;23.310;2023-06-26T08:18:11;93729.56;;;24.83;75.46
11682;BME280;5897;42.640;23.310;2023-06-26T08:20:38;93727.63;;;24.97;73.48
11682;BME280;5897;42.640;23.310;2023-06-26T08:23:04;93727.84;;;24.99;75.17
11682;BME280;5897;42.640;23.310;2023-06-26T08:25:32;93723.53;;;24.85;75.34
11682;BME280;5897;42.640;23.310;2023-06-26T08:27:58;93729.34;;;24.81;71.00
11682;BME280;5897;42.640;23.310;2023-06-26T08:30:25;93730.63;;;24.56;74.22
11682;BME280;5897;42.640;23.310;2023-06-26T08:32:54;93735.34;;;24.43;74.48
11682;BME280;5897;42.640;23.310;2023-06-26T08:35:21;93747.06;;;24.25;76.35
11682;BME280;5897;42.640;23.310;2023-06-26T08:37:48;93722.72;;;23.99;76.84
11682;BME280;5897;42.640;23.310;2023-06-26T08:40:17;93740.03;;;24.24;76.97
11682;BME280;5897;42.640;23.310;2023-06-26T08:42:44;93744.16;;;24.17;76.86
11682;BME280;5897;42.640;23.310;2023-06-26T08:45:11;93737.66;;;24.15;78.19
11682;BME280;5897;42.640;23.310;2023-06-26T08:47:38;93730.09;;;24.63;77.11
11682;BME280;5897;42.640;23.310;2023-06-26T08:50:10;93731.16;;;24.97;75.48
11682;BME280;5897;42.640;23.310;2023-06-26T08:52:43;93730.19;;;25.45;75.89
11682;BME280;5897;42.640;23.310;2023-06-26T08:55:12;93732.69;;;25.48;71.76
11682;BME280;5897;42.640;23.310;2023-06-26T08:57:41;93732.41;;;25.33;70.33
11682;BME280;5897;42.640;23.310;2023-06-26T09:00:09;93740.94;;;25.17;69.61
11682;BME280;5897;42.640;23.310;2023-06-26T09:02:36;93722.31;;;25.17;71.17
11682;BME280;5897;42.640;23.310;2023-06-26T09:05:03;93727.09;;;25.17;70.06
11682;BME280;5897;42.640;23.310;2023-06-26T09:07:31;93723.88;;;25.13;71.39
11682;BME280;5897;42.640;23.310;2023-06-26T09:09:58;93729.44;;;25.63;67.40
11682;BME280;5897;42.640;23.310;2023-06-26T09:12:26;93735.28;;;25.91;64.78
11682;BME280;5897;42.640;23.310;2023-06-26T09:14:54;93731.47;;;26.20;68.20
11682;BME280;5897;42.640;23.310;2023-06-26T09:17:24;93724.09;;;26.09;63.27
11682;BME280;5897;42.640;23.310;2023-06-26T09:19:51;93731.88;;;25.98;66.12
11682;BME280;5897;42.640;23.310;2023-06-26T09:22:18;93730.56;;;25.86;66.75
11682;BME280;5897;42.640;23.310;2023-06-26T09:24:46;93722.34;;;26.25;65.90
11682;BME280;5897;42.640;23.310;2023-06-26T09:27:13;93722.81;;;26.10;66.07
11682;BME280;5897;42.640;23.310;2023-06-26T09:29:40;93724.75;;;26.15;63.09
11682;BME280;5897;42.640;23.310;2023-06-26T09:32:07;93726.97;;;25.91;64.25
11682;BME280;5897;42.640;23.310;2023-06-26T09:34:34;93725.59;;;25.97;66.07
11682;BME280;5897;42.640;23.310;2023-06-26T09:37:01;93719.69;;;25.88;66.30
11682;BME280;5897;42.640;23.310;2023-06-26T09:39:30;93718.91;;;26.19;67.03
11682;BME280;5897;42.640;23.310;2023-06-26T09:41:58;93716.56;;;26.62;66.07
11682;BME280;5897;42.640;23.310;2023-06-26T09:44:27;93711.56;;;26.73;63.70
11682;BME280;5897;42.640;23.310;2023-06-26T09:46:54;93716.94;;;27.05;62.28
11682;BME280;5897;42.640;23.310;2023-06-26T09:49:23;93723.69;;;26.83;60.30
11682;BME280;5897;42.640;23.310;2023-06-26T09:51:51;93722.66;;;27.20;61.28
11682;BME280;5897;42.640;23.310;2023-06-26T09:54:18;93727.22;;;26.84;57.77
11682;BME280;5897;42.640;23.310;2023-06-26T09:56:48;93729.56;;;26.54;59.80
11682;BME280;5897;42.640;23.310;2023-06-26T09:59:16;93716.25;;;26.65;58.73
11682;BME280;5897;42.640;23.310;2023-06-26T10:01:45;93720.44;;;27.05;58.69
11682;BME280;5897;42.640;23.310;2023-06-26T10:04:12;93717.28;;;27.35;56.95
11682;BME280;5897;42.640;23.310;2023-06-26T10:06:44;93715.31;;;27.43;56.19
11682;BME280;5897;42.640;23.310;2023-06-26T10:09:14;93716.53;;;27.88;53.93
11682;BME280;5897;42.640;23.310;2023-06-26T10:11:48;93715.63;;;27.93;55.61
11682;BME280;5897;42.640;23.310;2023-06-26T10:14:20;93716.31;;;28.07;57.08
11682;BME280;5897;42.640;23.310;2023-06-26T10:16:49;93712.38;;;28.30;54.51
11682;BME280;5897;42.640;23.310;2023-06-26T10:19:18;93712.06;;;28.13;53.07
11682;BME280;5897;42.640;23.310;2023-06-26T10:21:50;93712.72;;;27.99;51.85
11682;BME280;5897;42.640;23.310;2023-06-26T10:24:18;93714.34;;;27.94;54.40
11682;BME280;5897;42.640;23.310;2023-06-26T10:26:46;93714.44;;;27.68;54.11
11682;BME280;5897;42.640;23.310;2023-06-26T10:29:19;93705.59;;;27.16;54.46
11682;BME280;5897;42.640;23.310;2023-06-26T10:31:50;93699.97;;;27.42;55.34
11682;BME280;5897;42.640;23.310;2023-06-26T10:34:18;93711.31;;;27.31;54.28
11682;BME280;5897;42.640;23.310;2023-06-26T10:36:45;93707.88;;;27.38;52.50
11682;BME280;5897;42.640;23.310;2023-06-26T10:39:12;93706.38;;;27.37;50.29
11682;BME280;5897;42.640;23.310;2023-06-26T10:41:40;93708.47;;;27.23;52.89
11682;BME280;5897;42.640;23.310;2023-06-26T10:44:09;93697.84;;;27.01;53.41
11682;BME280;5897;42.640;23.310;2023-06-26T10:46:50;93704.78;;;26.95;55.36
11682;BME280;5897;42.640;23.310;2023-06-26T10:49:19;93702.31;;;27.04;55.49
11682;BME280;5897;42.640;23.310;2023-06-26T10:51:48;93703.31;;;26.94;54.90
11682;BME280;5897;42.640;23.310;2023-06-26T10:54:16;93702.41;;;27.12;53.83
11682;BME280;5897;42.640;23.310;2023-06-26T10:56:45;93702.88;;;26.90;53.61
11682;BME280;5897;42.640;23.310;2023-06-26T10:59:16;93697.78;;;26.81;55.00
11682;BME280;5897;42.640;23.310;2023-06-26T11:01:43;93696.97;;;26.60;55.91
11682;BME280;5897;42.640;23.310;2023-06-26T11:04:14;93702.59;;;26.67;53.91
11682;BME280;5897;42.640;23.310;2023-06-26T11:06:45;93695.69;;;26.61;55.09
11682;BME280;5897;42.640;23.310;2023-06-26T11:09:15;93693.44;;;26.46;57.36
11682;BME280;5897;42.640;23.310;2023-06-26T11:11:56;93697.06;;;26.67;57.54
11682;BME280;5897;42.640;23.310;2023-06-26T11:14:31;93699.19;;;26.48;55.79
11682;BME280;5897;42.640;23.310;2023-06-26T11:16:58;93692.28;;;26.42;56.98
11682;BME280;5897;42.640;23.310;2023-06-26T11:19:27;93684.91;;;26.44;55.49
11682;BME280;5897;42.640;23.310;2023-06-26T11:21:58;93688.84;;;26.75;56.18
11682;BME280;5897;42.640;23.310;2023-06-26T11:24:26;93693.03;;;27.02;56.27
11682;BME280;5897;42.640;23.310;2023-06-26T11:26:54;93694.16;;;27.32;57.16
11682;BME280;5897;42.640;23.310;2023-06-26T11:29:26;93689.91;;;27.93;54.64
11682;BME280;5897;42.640;23.310;2023-06-26T11:31:58;93692.19;;;28.02;53.25
11682;BME280;5897;42.640;23.310;2023-06-26T11:34:29;93690.50;;;28.55;50.81
11682;BME280;5897;42.640;23.310;2023-06-26T11:36:57;93693.53;;;28.64;49.69
11682;BME280;5897;42.640;23.310;2023-06-26T11:39:26;93688.44;;;28.48;46.78
11682;BME280;5897;42.640;23.310;2023-06-26T11:41:53;93694.28;;;28.09;48.88
11682;BME280;5897;42.640;23.310;2023-06-26T11:44:21;93694.91;;;27.53;51.14
11682;BME280;5897;42.640;23.310;2023-06-26T11:46:52;93690.16;;;27.41;52.29
11682;BME280;5897;42.640;23.310;2023-06-26T11:49:21;93690.03;;;27.13;48.93
11682;BME280;5897;42.640;23.310;2023-06-26T11:51:53;93684.53;;;27.00;51.59
11682;BME280;5897;42.640;23.310;2023-06-26T11:54:24;93687.31;;;27.00;50.92
11682;BME280;5897;42.640;23.310;2023-06-26T11:56:53;93683.53;;;26.77;51.34
11682;BME280;5897;42.640;23.310;2023-06-26T11:59:21;93684.06;;;26.36;55.64
11682;BME280;5897;42.640;23.310;2023-06-26T12:01:49;93688.00;;;26.41;56.30
11682;BME280;5897;42.640;23.310;2023-06-26T12:04:17;93664.34;;;26.53;57.56
11682;BME280;5897;42.640;23.310;2023-06-26T12:06:46;93680.19;;;26.78;56.17
11682;BME280;5897;42.640;23.310;2023-06-26T12:09:17;93677.22;;;27.43;55.86
11682;BME280;5897;42.640;23.310;2023-06-26T12:11:46;93679.88;;;27.90;49.78
11682;BME280;5897;42.640;23.310;2023-06-26T12:14:14;93670.41;;;28.13;51.20
11682;BME280;5897;42.640;23.310;2023-06-26T12:16:42;93680.69;;;28.26;49.07
11682;BME280;5897;42.640;23.310;2023-06-26T12:19:09;93679.03;;;28.02;50.01
11682;BME280;5897;42.640;23.310;2023-06-26T12:21:47;93670.09;;;27.96;50.13
11682;BME280;5897;42.640;23.310;2023-06-26T12:24:20;93671.09;;;28.34;50.01
11682;BME280;5897;42.640;23.310;2023-06-26T12:26:49;93680.47;;;28.44;48.48
11682;BME280;5897;42.640;23.310;2023-06-26T12:29:18;93670.44;;;28.84;48.35
11682;BME280;5897;42.640;23.310;2023-06-26T12:31:49;93668.69;;;29.09;47.31
11682;BME280;5897;42.640;23.310;2023-06-26T12:34:19;93666.72;;;29.40;45.90
11682;BME280;5897;42.640;23.310;2023-06-26T12:36:48;93662.81;;;29.28;45.80
11682;BME280;5897;42.640;23.310;2023-06-26T12:39:16;93666.56;;;29.38;44.96
11682;BME280;5897;42.640;23.310;2023-06-26T12:41:52;93669.91;;;29.44;44.64
11682;BME280;5897;42.640;23.310;2023-06-26T12:44:20;93675.78;;;29.25;44.94
11682;BME280;5897;42.640;23.310;2023-06-26T12:46:48;93669.78;;;29.06;45.25
11682;BME280;5897;42.640;23.310;2023-06-26T12:49:15;93671.69;;;28.68;45.57
11682;BME280;5897;42.640;23.310;2023-06-26T12:51:43;93667.25;;;28.73;48.71
11682;BME280;5897;42.640;23.310;2023-06-26T12:54:09;93662.22;;;28.64;48.11
11682;BME280;5897;42.640;23.310;2023-06-26T12:56:36;93671.22;;;28.21;48.36
11682;BME280;5897;42.640;23.310;2023-06-26T12:59:04;93676.66;;;28.06;49.44